Time;durP1;ratioP1;P1;durP2;ratioP2;P2;SDS_P1;SDS_P2;PMS_P1;PMS_P2;Temp;Humidity;BMP_temperature;BMP_pressure;BME280_temperature;BME280_humidity;BME280_pressure;Samples;Min_cycle;Max_cycle;Signal;HPM_P1;HPM_P2
2021/08/01 00:02:23;;;;;;;2.90;2.37;;;18.40;99.90;;;;;;4919831;29;20532;-72
2021/08/01 00:04:50;;;;;;;2.27;2.07;;;18.40;99.90;;;;;;4919964;29;20763;-72
2021/08/01 00:07:17;;;;;;;3.70;1.80;;;18.40;99.90;;;;;;4920007;29;20473;-70
2021/08/01 00:09:45;;;;;;;3.90;2.23;;;18.40;99.90;;;;;;4919666;29;20915;-71
2021/08/01 00:12:12;;;;;;;3.03;2.30;;;18.30;99.90;;;;;;4919714;29;20508;-71
2021/08/01 00:14:38;;;;;;;3.03;2.40;;;18.30;99.90;;;;;;4919326;29;20908;-71
2021/08/01 00:17:05;;;;;;;3.07;2.47;;;18.30;99.90;;;;;;4919787;29;20465;-72
2021/08/01 00:19:32;;;;;;;2.60;2.40;;;18.30;99.90;;;;;;4919395;29;20480;-72
2021/08/01 00:21:59;;;;;;;4.27;1.80;;;18.30;99.90;;;;;;4919289;29;20466;-71
2021/08/01 00:24:25;;;;;;;3.87;2.23;;;18.20;99.90;;;;;;4919825;29;20477;-71
2021/08/01 00:26:53;;;;;;;2.60;2.27;;;18.20;99.90;;;;;;4919606;29;20465;-71
2021/08/01 00:29:20;;;;;;;3.87;2.50;;;18.20;99.90;;;;;;4919960;29;20850;-71
2021/08/01 00:31:47;;;;;;;2.47;2.27;;;18.20;99.90;;;;;;4919379;29;20485;-71
2021/08/01 00:34:13;;;;;;;2.43;2.23;;;18.10;99.90;;;;;;4919257;29;20470;-72
2021/08/01 00:36:40;;;;;;;2.97;2.00;;;18.10;99.90;;;;;;4919280;29;20485;-71
2021/08/01 00:39:09;;;;;;;3.60;2.17;;;18.10;99.90;;;;;;4919128;29;20461;-71
2021/08/01 00:41:36;;;;;;;4.00;2.13;;;18.10;99.90;;;;;;4919153;29;20548;-71
2021/08/01 00:44:04;;;;;;;7.33;2.30;;;18.10;99.90;;;;;;4919399;29;20474;-71
2021/08/01 00:46:31;;;;;;;3.10;2.07;;;18.10;99.90;;;;;;4919058;29;20461;-71
2021/08/01 00:48:58;;;;;;;3.07;2.00;;;18.10;99.90;;;;;;4919170;29;20497;-71
2021/08/01 00:51:25;;;;;;;3.00;2.33;;;18.10;99.90;;;;;;4918931;29;20472;-71
2021/08/01 00:53:51;;;;;;;1.97;1.83;;;18.10;99.90;;;;;;4918770;29;20588;-72
2021/08/01 00:56:18;;;;;;;3.40;2.20;;;18.00;99.90;;;;;;4918686;29;20495;-72
2021/08/01 00:58:45;;;;;;;3.57;2.70;;;18.00;99.90;;;;;;4919097;29;20476;-71
2021/08/01 01:01:18;;;;;;;2.20;2.00;;;18.00;99.90;;;;;;4918914;29;20465;-71
2021/08/01 01:03:53;;;;;;;2.60;2.37;;;18.00;99.90;;;;;;4918993;29;20460;-72
2021/08/01 01:06:26;;;;;;;3.47;2.23;;;17.90;99.90;;;;;;4919152;29;20473;-71
2021/08/01 01:08:59;;;;;;;2.33;2.13;;;18.00;99.90;;;;;;4919044;29;20454;-71
2021/08/01 01:11:32;;;;;;;3.70;2.60;;;18.00;99.90;;;;;;4918904;29;20478;-71
2021/08/01 01:14:02;;;;;;;2.57;2.33;;;17.90;99.90;;;;;;4918327;29;20492;-71
2021/08/01 01:16:32;;;;;;;2.50;2.30;;;17.90;99.90;;;;;;4918794;29;20489;-72
2021/08/01 01:19:00;;;;;;;3.50;2.60;;;17.90;99.90;;;;;;4918991;29;20465;-71
2021/08/01 01:21:48;;;;;;;2.50;2.27;;;17.90;99.90;;;;;;4919030;29;20497;-72
2021/08/01 01:24:19;;;;;;;3.10;2.70;;;17.80;99.90;;;;;;4918746;29;20473;-71
2021/08/01 01:26:55;;;;;;;3.33;2.40;;;17.80;99.90;;;;;;4918963;29;20461;-71
2021/08/01 01:29:27;;;;;;;3.20;2.50;;;17.80;99.90;;;;;;4920086;29;20449;-71
2021/08/01 01:32:08;;;;;;;2.47;2.27;;;17.80;99.90;;;;;;4919190;29;20510;-71
2021/08/01 01:34:48;;;;;;;3.63;2.60;;;17.70;99.90;;;;;;4919881;29;20445;-71
2021/08/01 01:37:19;;;;;;;3.20;2.37;;;17.70;99.90;;;;;;4920906;29;20449;-71
2021/08/01 01:39:48;;;;;;;2.50;2.30;;;17.70;99.90;;;;;;4921613;29;20454;-71
2021/08/01 01:42:18;;;;;;;2.67;2.43;;;17.70;99.90;;;;;;4921555;29;20457;-71
2021/08/01 01:44:47;;;;;;;3.83;2.50;;;17.70;99.90;;;;;;4920787;29;20914;-71
2021/08/01 01:47:15;;;;;;;2.40;2.10;;;17.70;99.90;;;;;;4920593;29;20903;-71
2021/08/01 01:49:43;;;;;;;2.87;2.67;;;17.70;99.90;;;;;;4921076;29;20465;-71
2021/08/01 01:52:12;;;;;;;4.73;2.70;;;17.70;99.90;;;;;;4920554;29;20493;-71
2021/08/01 01:54:40;;;;;;;3.97;2.60;;;17.70;99.90;;;;;;4921162;29;20469;-71
2021/08/01 01:57:07;;;;;;;8.63;2.50;;;17.70;99.90;;;;;;4920583;29;20818;-71
2021/08/01 01:59:35;;;;;;;2.90;2.70;;;17.70;99.90;;;;;;4921077;29;20465;-72
2021/08/01 02:02:01;;;;;;;5.00;2.60;;;17.70;99.90;;;;;;4920730;29;20798;-72
2021/08/01 02:04:28;;;;;;;5.07;3.20;;;17.70;99.90;;;;;;4923734;29;20461;-72
2021/08/01 02:06:55;;;;;;;2.77;2.57;;;17.80;99.90;;;;;;4919956;29;20458;-72
2021/08/01 02:09:32;;;;;;;3.63;2.73;;;17.70;99.90;;;;;;4918418;29;20958;-72
2021/08/01 02:12:08;;;;;;;2.93;2.73;;;17.70;99.90;;;;;;4918561;29;20465;-72
2021/08/01 02:14:45;;;;;;;3.30;3.00;;;17.70;99.90;;;;;;4920305;29;20496;-72
2021/08/01 02:17:15;;;;;;;2.53;2.33;;;17.70;99.90;;;;;;4920631;29;20470;-72
2021/08/01 02:19:44;;;;;;;4.87;2.97;;;17.70;99.90;;;;;;4919953;29;20468;-72
2021/08/01 02:22:11;;;;;;;4.40;2.63;;;17.70;99.90;;;;;;4921879;29;20802;-71
2021/08/01 02:24:39;;;;;;;3.37;3.07;;;17.70;99.90;;;;;;4921580;29;20480;-71
2021/08/01 02:27:10;;;;;;;3.77;3.27;;;17.60;99.90;;;;;;4921839;29;20783;-72
2021/08/01 02:29:38;;;;;;;2.90;2.63;;;17.60;99.90;;;;;;4921652;29;20449;-72
2021/08/01 02:32:08;;;;;;;3.50;3.20;;;17.60;99.90;;;;;;4921742;29;20922;-71
2021/08/01 02:34:35;;;;;;;3.90;2.93;;;17.50;99.90;;;;;;4921365;29;20484;-71
2021/08/01 02:37:03;;;;;;;3.33;2.90;;;17.50;99.90;;;;;;4921259;29;20492;-72
2021/08/01 02:39:30;;;;;;;3.60;3.30;;;17.40;99.90;;;;;;4921481;29;20461;-72
2021/08/01 02:42:00;;;;;;;4.97;3.53;;;17.40;99.90;;;;;;4921401;29;20567;-71
2021/08/01 02:44:33;;;;;;;6.03;3.40;;;17.30;99.90;;;;;;4922380;29;20736;-71
2021/08/01 02:47:01;;;;;;;4.17;3.60;;;17.30;99.90;;;;;;4921679;29;20772;-71
2021/08/01 02:49:32;;;;;;;5.80;3.87;;;17.30;99.90;;;;;;4921234;29;20484;-71
2021/08/01 02:52:03;;;;;;;4.50;3.40;;;17.20;99.90;;;;;;4921275;29;20506;-71
2021/08/01 02:54:32;;;;;;;7.80;3.50;;;17.20;99.90;;;;;;4921317;29;20524;-71
2021/08/01 02:57:04;;;;;;;4.27;3.73;;;17.20;99.90;;;;;;4920737;29;20516;-71
2021/08/01 02:59:34;;;;;;;3.90;3.47;;;17.20;99.90;;;;;;4920875;29;20902;-72
2021/08/01 03:02:02;;;;;;;4.17;3.80;;;17.20;99.90;;;;;;4921279;29;20469;-72
2021/08/01 03:04:29;;;;;;;3.73;3.37;;;17.20;99.90;;;;;;4920715;29;20930;-72
2021/08/01 03:06:56;;;;;;;3.47;3.13;;;17.20;99.90;;;;;;4920661;29;20521;-72
2021/08/01 03:09:23;;;;;;;3.07;2.83;;;17.10;99.90;;;;;;4920817;29;20560;-72
2021/08/01 03:11:50;;;;;;;5.50;3.27;;;17.10;99.90;;;;;;4920895;29;20481;-72
2021/08/01 03:14:17;;;;;;;4.07;3.33;;;17.10;99.90;;;;;;4920735;29;20521;-72
2021/08/01 03:16:45;;;;;;;3.60;3.30;;;17.10;99.90;;;;;;4920691;29;20845;-72
2021/08/01 03:19:12;;;;;;;3.87;3.20;;;17.10;99.90;;;;;;4920826;29;20473;-71
2021/08/01 03:21:38;;;;;;;4.10;3.00;;;17.10;99.90;;;;;;4920537;29;20461;-72
2021/08/01 03:24:06;;;;;;;8.90;3.70;;;17.10;99.90;;;;;;4920710;29;20469;-72
2021/08/01 03:26:32;;;;;;;3.50;3.20;;;17.20;99.90;;;;;;4920718;29;20465;-71
2021/08/01 03:28:59;;;;;;;4.50;4.10;;;17.20;99.90;;;;;;4920635;29;20528;-73
2021/08/01 03:31:26;;;;;;;4.33;3.43;;;17.20;99.90;;;;;;4920504;29;20567;-71
2021/08/01 03:33:54;;;;;;;4.60;3.70;;;17.10;99.90;;;;;;4920546;29;20834;-71
2021/08/01 03:36:20;;;;;;;3.53;3.20;;;17.10;99.90;;;;;;4920041;29;20482;-71
2021/08/01 03:38:47;;;;;;;3.77;3.47;;;17.10;99.90;;;;;;4920578;29;20470;-71
2021/08/01 03:41:14;;;;;;;3.33;3.03;;;17.10;99.90;;;;;;4920154;29;20937;-71
2021/08/01 03:43:40;;;;;;;3.50;3.20;;;17.10;99.90;;;;;;4920093;29;20497;-70
2021/08/01 03:46:07;;;;;;;3.17;2.97;;;17.10;99.90;;;;;;4920381;29;20468;-70
2021/08/01 03:48:34;;;;;;;4.70;3.30;;;17.10;99.90;;;;;;4920031;29;20468;-72
2021/08/01 03:51:02;;;;;;;3.80;3.47;;;17.10;99.90;;;;;;4920182;29;20497;-71
2021/08/01 03:53:31;;;;;;;3.77;3.43;;;17.00;99.90;;;;;;4920213;29;20525;-70
2021/08/01 03:55:58;;;;;;;5.57;3.53;;;17.00;99.90;;;;;;4919828;29;20556;-71
2021/08/01 03:58:24;;;;;;;4.70;3.43;;;17.00;99.90;;;;;;4919973;29;20478;-71
2021/08/01 04:00:51;;;;;;;4.80;3.60;;;17.00;99.90;;;;;;4920028;29;20466;-71
2021/08/01 04:03:20;;;;;;;3.73;3.43;;;17.00;99.90;;;;;;4919725;29;20470;-71
2021/08/01 04:05:47;;;;;;;7.40;3.30;;;17.00;99.90;;;;;;4919936;29;20533;-71
2021/08/01 04:08:15;;;;;;;3.60;3.30;;;17.00;99.90;;;;;;4919702;29;20960;-71
2021/08/01 04:10:42;;;;;;;4.10;3.70;;;17.00;99.90;;;;;;4919693;29;20474;-71
2021/08/01 04:13:08;;;;;;;8.10;3.60;;;17.00;99.90;;;;;;4919110;29;20470;-71
2021/08/01 04:15:35;;;;;;;5.73;3.30;;;17.00;99.90;;;;;;4920096;29;20456;-71
2021/08/01 04:18:05;;;;;;;3.63;3.33;;;16.90;99.90;;;;;;4919581;29;20945;-71
2021/08/01 04:20:32;;;;;;;3.90;3.60;;;17.00;99.90;;;;;;4919719;29;20453;-71
2021/08/01 04:22:59;;;;;;;4.43;4.03;;;16.90;99.90;;;;;;4919796;29;20469;-71
2021/08/01 04:25:27;;;;;;;3.80;3.50;;;16.90;99.90;;;;;;4919488;29;20466;-72
2021/08/01 04:27:54;;;;;;;4.13;3.70;;;16.90;99.90;;;;;;4919130;29;20477;-71
2021/08/01 04:30:21;;;;;;;5.53;3.73;;;16.90;99.90;;;;;;4919473;29;20501;-71
2021/08/01 04:32:48;;;;;;;5.40;3.93;;;16.90;99.90;;;;;;4919282;29;20499;-72
2021/08/01 04:35:14;;;;;;;3.40;3.10;;;16.90;99.90;;;;;;4919473;29;20462;-71
2021/08/01 04:37:41;;;;;;;4.53;3.30;;;16.90;99.90;;;;;;4919068;29;20485;-72
2021/08/01 04:40:09;;;;;;;4.30;3.40;;;16.90;99.90;;;;;;4919081;29;20465;-72
2021/08/01 04:42:38;;;;;;;4.23;3.87;;;16.90;99.90;;;;;;4918795;29;20461;-72
2021/08/01 04:45:06;;;;;;;3.90;3.50;;;16.90;99.90;;;;;;4919330;29;20465;-71
2021/08/01 04:47:33;;;;;;;3.70;3.40;;;17.00;99.90;;;;;;4918771;29;20918;-71
2021/08/01 04:50:00;;;;;;;5.00;3.77;;;16.90;99.90;;;;;;4919229;29;20469;-71
2021/08/01 04:52:26;;;;;;;3.73;3.13;;;17.00;99.90;;;;;;4919156;29;20465;-71
2021/08/01 04:54:53;;;;;;;3.63;3.33;;;17.00;99.90;;;;;;4918761;29;20937;-72
2021/08/01 04:57:20;;;;;;;4.70;3.87;;;17.10;99.90;;;;;;4919233;29;20619;-72
2021/08/01 04:59:50;;;;;;;4.30;3.90;;;17.10;99.90;;;;;;4918985;29;20473;-71
2021/08/01 05:02:17;;;;;;;5.10;3.50;;;17.10;99.90;;;;;;4918741;29;20505;-71
2021/08/01 05:04:44;;;;;;;5.40;4.43;;;17.10;99.90;;;;;;4918874;29;20785;-72
2021/08/01 05:07:10;;;;;;;3.20;3.00;;;17.10;99.90;;;;;;4919097;29;20828;-72
2021/08/01 05:09:37;;;;;;;5.40;3.33;;;17.20;99.90;;;;;;4918803;29;20465;-71
2021/08/01 05:12:04;;;;;;;5.20;3.60;;;17.20;99.90;;;;;;4918922;29;20506;-71
2021/08/01 05:14:31;;;;;;;7.57;4.13;;;17.20;99.90;;;;;;4918299;29;20489;-72
2021/08/01 05:16:59;;;;;;;4.40;3.60;;;17.20;99.90;;;;;;4918403;29;20978;-71
2021/08/01 05:19:26;;;;;;;4.43;3.83;;;17.10;99.90;;;;;;4918581;29;20476;-71
2021/08/01 05:21:52;;;;;;;4.57;3.40;;;17.10;99.90;;;;;;4918869;29;20946;-71
2021/08/01 05:24:19;;;;;;;4.70;4.20;;;17.10;99.90;;;;;;4918728;29;20493;-72
2021/08/01 05:26:46;;;;;;;4.13;3.70;;;17.20;99.90;;;;;;4918537;29;20468;-72
2021/08/01 05:29:12;;;;;;;5.00;4.17;;;17.20;99.90;;;;;;4918437;29;20476;-72
2021/08/01 05:31:39;;;;;;;4.90;4.00;;;17.30;99.90;;;;;;4918515;29;20462;-72
2021/08/01 05:34:07;;;;;;;5.10;3.83;;;17.30;99.90;;;;;;4918664;29;20473;-72
2021/08/01 05:36:34;;;;;;;4.53;3.70;;;17.30;99.90;;;;;;4918543;29;20489;-72
2021/08/01 05:39:01;;;;;;;6.07;4.00;;;17.30;99.90;;;;;;4918457;29;20465;-72
2021/08/01 05:41:28;;;;;;;4.77;4.00;;;17.30;99.90;;;;;;4918478;29;20469;-72
2021/08/01 05:43:54;;;;;;;4.70;4.30;;;17.40;99.90;;;;;;4918757;29;20524;-72
2021/08/01 05:46:23;;;;;;;5.53;4.70;;;17.40;99.90;;;;;;4918565;29;20465;-72
2021/08/01 05:48:49;;;;;;;5.30;4.80;;;17.40;99.90;;;;;;4918425;29;20470;-71
2021/08/01 05:51:19;;;;;;;4.50;3.90;;;17.50;99.90;;;;;;4918339;29;20777;-71
2021/08/01 05:53:46;;;;;;;5.20;4.00;;;17.40;99.90;;;;;;4919348;29;20556;-71
2021/08/01 05:56:15;;;;;;;4.03;3.63;;;17.40;99.90;;;;;;4922336;29;20472;-71
2021/08/01 05:58:43;;;;;;;4.80;3.77;;;17.40;99.90;;;;;;4922131;29;20484;-70
2021/08/01 06:01:11;;;;;;;5.93;5.10;;;17.40;99.90;;;;;;4921878;29;20481;-71
2021/08/01 06:03:38;;;;;;;7.97;4.50;;;17.40;99.90;;;;;;4922052;29;20472;-70
2021/08/01 06:06:12;;;;;;;5.70;5.20;;;17.40;99.90;;;;;;4921864;29;20465;-71
2021/08/01 06:08:41;;;;;;;4.53;3.60;;;17.40;99.90;;;;;;4922717;29;20947;-71
2021/08/01 06:11:08;;;;;;;4.90;4.10;;;17.40;99.90;;;;;;4921826;29;20472;-71
2021/08/01 06:13:35;;;;;;;5.20;4.47;;;17.40;99.90;;;;;;4921865;29;20529;-71
2021/08/01 06:16:02;;;;;;;6.40;4.10;;;17.40;99.90;;;;;;4921764;29;20461;-73
2021/08/01 06:18:29;;;;;;;7.03;4.20;;;17.40;99.90;;;;;;4922000;29;20485;-72
2021/08/01 06:21:06;;;;;;;4.57;3.67;;;17.50;99.90;;;;;;4921474;29;20957;-71
2021/08/01 06:23:33;;;;;;;4.80;4.40;;;17.50;99.90;;;;;;4921873;29;20472;-71
2021/08/01 06:26:01;;;;;;;4.10;3.37;;;17.50;99.90;;;;;;4921810;29;20495;-71
2021/08/01 06:28:28;;;;;;;5.17;3.80;;;17.50;99.90;;;;;;4921693;29;20594;-72
2021/08/01 06:30:55;;;;;;;5.80;3.20;;;17.50;99.90;;;;;;4921661;29;20501;-71
2021/08/01 06:33:22;;;;;;;3.10;2.90;;;17.50;99.90;;;;;;4921587;29;20465;-72
2021/08/01 06:35:48;;;;;;;3.33;3.03;;;17.60;99.90;;;;;;4921786;29;20472;-71
2021/08/01 06:38:15;;;;;;;3.10;2.80;;;17.70;99.90;;;;;;4921372;29;20498;-72
2021/08/01 06:40:42;;;;;;;3.30;2.90;;;17.70;99.90;;;;;;4921341;29;20476;-72
2021/08/01 06:43:10;;;;;;;3.53;3.23;;;17.90;99.90;;;;;;4921026;29;20469;-70
2021/08/01 06:45:37;;;;;;;3.47;3.17;;;17.90;99.90;;;;;;4921339;29;20791;-72
2021/08/01 06:48:04;;;;;;;4.27;2.70;;;18.00;99.90;;;;;;4921519;29;20461;-71
2021/08/01 06:50:31;;;;;;;5.70;2.77;;;18.00;99.90;;;;;;4921130;29;20465;-72
2021/08/01 06:52:58;;;;;;;6.50;2.87;;;18.00;99.90;;;;;;4921120;29;20466;-71
2021/08/01 06:55:24;;;;;;;3.53;2.70;;;18.10;99.90;;;;;;4921253;29;20528;-71
2021/08/01 06:57:51;;;;;;;2.47;2.20;;;18.00;99.90;;;;;;4920868;29;20512;-72
2021/08/01 07:00:21;;;;;;;4.17;2.40;;;18.00;99.90;;;;;;4920936;29;20471;-72
2021/08/01 07:02:52;;;;;;;2.50;2.30;;;18.10;99.90;;;;;;4920979;29;20512;-71
2021/08/01 07:05:19;;;;;;;2.60;2.40;;;18.10;99.90;;;;;;4920814;29;20825;-72
2021/08/01 07:07:46;;;;;;;3.20;2.03;;;18.10;99.90;;;;;;4921024;29;20468;-72
2021/08/01 07:10:12;;;;;;;2.70;2.50;;;18.20;99.90;;;;;;4920827;29;20786;-72
2021/08/01 07:12:41;;;;;;;2.40;2.20;;;18.30;99.90;;;;;;4920635;29;20468;-72
2021/08/01 07:15:10;;;;;;;2.97;2.67;;;18.30;99.90;;;;;;4920936;29;20825;-72
2021/08/01 07:17:38;;;;;;;3.17;2.50;;;18.40;99.90;;;;;;4920665;29;20489;-72
2021/08/01 07:20:08;;;;;;;3.63;2.60;;;18.40;99.90;;;;;;4920578;29;20856;-72
2021/08/01 07:22:34;;;;;;;2.87;2.67;;;18.30;99.90;;;;;;4920692;29;20469;-72
2021/08/01 07:25:01;;;;;;;2.60;2.40;;;18.40;99.90;;;;;;4921167;29;20798;-71
2021/08/01 07:27:28;;;;;;;4.57;2.80;;;18.50;99.90;;;;;;4920451;29;20461;-72
2021/08/01 07:29:55;;;;;;;5.03;3.07;;;18.50;99.90;;;;;;4920722;29;20809;-73
2021/08/01 07:32:21;;;;;;;3.63;2.77;;;18.50;99.90;;;;;;4920522;29;20466;-72
2021/08/01 07:34:50;;;;;;;2.90;2.60;;;18.50;99.90;;;;;;4920438;29;20505;-72
2021/08/01 07:37:17;;;;;;;3.20;2.90;;;18.50;99.90;;;;;;4920232;29;20486;-72
2021/08/01 07:39:44;;;;;;;2.80;2.50;;;18.50;99.90;;;;;;4920092;29;20956;-72
2021/08/01 07:42:14;;;;;;;3.30;3.00;;;18.50;99.90;;;;;;4920486;29;20466;-72
2021/08/01 07:44:48;;;;;;;3.20;2.97;;;18.60;99.90;;;;;;4920118;29;20461;-72
2021/08/01 07:47:16;;;;;;;6.80;2.90;;;18.70;99.90;;;;;;4920422;29;20441;-73
2021/08/01 07:49:42;;;;;;;3.20;2.80;;;18.70;99.90;;;;;;4920713;29;20468;-71
2021/08/01 07:52:11;;;;;;;4.40;3.13;;;18.70;99.90;;;;;;4920101;29;20465;-70
2021/08/01 07:54:38;;;;;;;3.47;2.80;;;18.70;99.90;;;;;;4920640;29;20461;-71
2021/08/01 07:57:21;;;;;;;3.20;3.00;;;18.70;99.90;;;;;;4919820;29;20923;-72
2021/08/01 07:59:47;;;;;;;4.03;2.87;;;18.70;99.90;;;;;;4920148;29;20449;-71
2021/08/01 08:02:14;;;;;;;5.83;3.00;;;18.70;99.90;;;;;;4919911;29;20465;-71
2021/08/01 08:04:41;;;;;;;4.33;3.23;;;18.80;99.90;;;;;;4920007;29;20473;-71
2021/08/01 08:07:07;;;;;;;3.83;3.43;;;18.80;99.90;;;;;;4919521;29;20922;-71
2021/08/01 08:09:35;;;;;;;3.63;3.23;;;18.70;99.90;;;;;;4919977;29;20599;-71
2021/08/01 08:12:03;;;;;;;3.80;2.70;;;18.60;99.90;;;;;;4919463;29;20461;-71
2021/08/01 08:14:29;;;;;;;3.63;3.10;;;18.70;99.90;;;;;;4919375;29;20557;-71
2021/08/01 08:16:59;;;;;;;2.90;2.60;;;18.70;99.90;;;;;;4919056;29;20469;-73
2021/08/01 08:19:27;;;;;;;2.70;2.50;;;18.80;99.90;;;;;;4919655;29;20462;-73
2021/08/01 08:21:54;;;;;;;10.17;3.30;;;18.70;99.90;;;;;;4919610;29;20811;-72
2021/08/01 08:24:21;;;;;;;3.17;2.97;;;18.70;99.90;;;;;;4919501;29;20800;-73
2021/08/01 08:26:49;;;;;;;6.57;3.30;;;18.70;99.90;;;;;;4919719;29;20465;-71
2021/08/01 08:29:16;;;;;;;4.10;2.63;;;18.70;99.90;;;;;;4919268;29;20461;-74
2021/08/01 08:31:46;;;;;;;3.00;2.67;;;18.80;99.90;;;;;;4918999;29;20950;-73
2021/08/01 08:34:13;;;;;;;3.00;2.70;;;18.90;99.90;;;;;;4919624;29;20833;-73
2021/08/01 08:36:47;;;;;;;4.30;2.80;;;19.00;99.90;;;;;;4919427;29;20796;-72
2021/08/01 08:39:14;;;;;;;3.07;2.77;;;19.20;99.90;;;;;;4919135;29;20476;-74
2021/08/01 08:41:41;;;;;;;3.07;2.50;;;19.40;99.90;;;;;;4919071;29;20465;-71
2021/08/01 08:44:09;;;;;;;3.43;2.50;;;19.60;99.90;;;;;;4919629;29;20573;-73
2021/08/01 08:46:38;;;;;;;4.67;2.70;;;19.80;99.90;;;;;;4918997;29;20466;-72
2021/08/01 08:49:09;;;;;;;3.00;2.70;;;20.00;99.90;;;;;;4919130;29;20473;-72
2021/08/01 08:51:38;;;;;;;6.43;3.03;;;20.10;99.90;;;;;;4919149;29;20466;-73
2021/08/01 08:54:09;;;;;;;5.93;3.60;;;20.20;99.90;;;;;;4919080;29;20461;-73
2021/08/01 08:56:37;;;;;;;5.20;2.50;;;20.20;99.90;;;;;;4918591;29;20941;-73
2021/08/01 08:59:06;;;;;;;6.03;2.87;;;20.20;99.90;;;;;;4918611;29;20493;-71
2021/08/01 09:01:34;;;;;;;3.47;2.87;;;20.30;99.90;;;;;;4919005;29;20493;-71
2021/08/01 09:04:00;;;;;;;6.03;3.07;;;20.30;99.90;;;;;;4918952;29;20476;-72
2021/08/01 09:06:30;;;;;;;3.10;2.90;;;20.20;99.90;;;;;;4918927;29;20792;-73
2021/08/01 09:09:01;;;;;;;3.70;3.40;;;20.00;99.90;;;;;;4919160;29;20489;-73
2021/08/01 09:11:27;;;;;;;3.33;2.80;;;19.90;99.90;;;;;;4918786;29;20817;-72
2021/08/01 09:13:58;;;;;;;3.70;2.53;;;19.90;99.90;;;;;;4918806;29;20493;-72
2021/08/01 09:16:42;;;;;;;3.33;2.70;;;20.00;99.90;;;;;;4919048;29;20460;-71
2021/08/01 09:19:24;;;;;;;3.40;2.63;;;20.00;99.90;;;;;;4918469;29;20780;-70
2021/08/01 09:21:50;;;;;;;3.30;2.77;;;20.10;99.90;;;;;;4918494;29;20449;-72
2021/08/01 09:24:17;;;;;;;3.67;2.80;;;20.20;99.90;;;;;;4918174;29;20465;-71
2021/08/01 09:26:45;;;;;;;2.87;2.67;;;20.30;99.90;;;;;;4918584;29;20806;-72
2021/08/01 09:29:11;;;;;;;2.70;2.47;;;20.40;99.90;;;;;;4918336;29;20918;-72
2021/08/01 09:31:40;;;;;;;4.83;2.60;;;20.50;99.90;;;;;;4918580;29;20472;-71
2021/08/01 09:34:25;;;;;;;5.10;2.90;;;20.80;99.90;;;;;;4918079;29;20961;-72
2021/08/01 09:37:00;;;;;;;3.20;2.90;;;21.00;99.90;;;;;;4918839;29;20854;-72
2021/08/01 09:39:31;;;;;;;3.10;2.80;;;21.10;99.90;;;;;;4918723;29;20548;-72
2021/08/01 09:42:03;;;;;;;3.93;2.40;;;21.10;99.90;;;;;;4918579;29;20951;-71
2021/08/01 09:44:30;;;;;;;2.47;2.27;;;21.00;99.90;;;;;;4918426;29;20465;-72
2021/08/01 09:46:58;;;;;;;2.50;2.30;;;21.00;99.90;;;;;;4918527;29;20790;-72
2021/08/01 09:49:28;;;;;;;2.80;2.60;;;21.00;99.90;;;;;;4918005;29;20923;-72
2021/08/01 09:51:57;;;;;;;2.87;2.67;;;21.00;99.90;;;;;;4918176;29;20465;-70
2021/08/01 09:54:24;;;;;;;4.73;2.30;;;21.00;99.90;;;;;;4918660;29;20524;-71
2021/08/01 09:56:56;;;;;;;3.10;2.80;;;21.10;99.90;;;;;;4918542;29;20469;-71
2021/08/01 09:59:25;;;;;;;2.60;2.40;;;21.10;99.90;;;;;;4918336;29;20489;-70
2021/08/01 10:01:54;;;;;;;3.23;2.50;;;21.20;99.90;;;;;;4918775;29;20476;-70
2021/08/01 10:04:38;;;;;;;3.17;2.90;;;21.20;99.90;;;;;;4918434;29;20806;-70
2021/08/01 10:07:06;;;;;;;5.50;2.73;;;21.20;99.90;;;;;;4918512;29;20773;-70
2021/08/01 10:09:34;;;;;;;3.63;2.93;;;21.10;99.90;;;;;;4918276;29;20469;-70
2021/08/01 10:12:01;;;;;;;2.67;2.20;;;21.10;99.90;;;;;;4918077;29;20465;-70
2021/08/01 10:14:29;;;;;;;2.30;2.10;;;21.10;99.90;;;;;;4917977;29;20489;-70
2021/08/01 10:16:56;;;;;;;3.37;3.07;;;21.20;99.90;;;;;;4918080;29;20529;-69
2021/08/01 10:19:22;;;;;;;3.27;3.07;;;21.30;99.90;;;;;;4918207;29;20496;-71
2021/08/01 10:21:54;;;;;;;2.90;2.70;;;21.20;99.90;;;;;;4918077;29;20484;-71
2021/08/01 10:24:26;;;;;;;4.33;2.60;;;21.20;99.90;;;;;;4918294;29;20477;-71
2021/08/01 10:26:54;;;;;;;2.80;2.60;;;21.00;99.90;;;;;;4918223;29;20477;-70
2021/08/01 10:29:31;;;;;;;3.93;2.53;;;21.00;99.90;;;;;;4917984;29;20462;-70
2021/08/01 10:31:59;;;;;;;3.00;2.47;;;21.00;99.90;;;;;;4918220;29;20532;-70
2021/08/01 10:34:36;;;;;;;6.03;2.93;;;21.10;99.90;;;;;;4918231;29;20472;-71
2021/08/01 10:37:08;;;;;;;2.53;2.33;;;21.10;99.90;;;;;;4918289;29;20445;-70
2021/08/01 10:39:36;;;;;;;3.00;2.70;;;21.10;99.90;;;;;;4918234;29;20486;-70
2021/08/01 10:42:07;;;;;;;3.00;2.67;;;21.20;99.90;;;;;;4920964;29;20945;-70
2021/08/01 10:44:36;;;;;;;7.00;2.70;;;21.20;99.90;;;;;;4921462;29;20796;-69
2021/08/01 10:47:06;;;;;;;3.20;2.30;;;21.20;99.90;;;;;;4921486;29;20497;-69
2021/08/01 10:49:38;;;;;;;2.90;2.60;;;21.30;99.90;;;;;;4921536;29;20515;-70
2021/08/01 10:52:09;;;;;;;3.00;2.80;;;21.30;99.90;;;;;;4921326;29;20460;-70
2021/08/01 10:54:36;;;;;;;6.13;2.40;;;21.30;99.90;;;;;;4921773;29;20847;-70
2021/08/01 10:57:14;;;;;;;4.70;3.07;;;21.30;99.90;;;;;;4921573;29;20461;-70
2021/08/01 11:00:09;;;;;;;2.83;2.63;;;21.40;99.90;;;;;;4921081;29;20648;-70
2021/08/01 11:02:36;;;;;;;4.70;2.63;;;21.50;99.90;;;;;;4921171;29;20527;-70
2021/08/01 11:05:37;;;;;;;2.90;2.70;;;21.60;99.90;;;;;;4921042;29;20466;-70
2021/08/01 11:08:07;;;;;;;4.40;2.73;;;21.70;99.90;;;;;;4920782;29;20476;-70
2021/08/01 11:10:34;;;;;;;5.40;2.87;;;21.60;99.90;;;;;;4921165;29;20470;-70
2021/08/01 11:13:21;;;;;;;3.30;2.70;;;21.50;99.90;;;;;;4920527;29;20850;-70
2021/08/01 11:15:48;;;;;;;2.53;2.33;;;21.40;99.90;;;;;;4920587;29;20930;-71
2021/08/01 11:18:15;;;;;;;2.80;2.60;;;21.30;99.90;;;;;;4920734;29;20813;-70
2021/08/01 11:21:04;;;;;;;4.63;2.57;;;21.40;99.90;;;;;;4920663;29;20473;-71
2021/08/01 11:24:09;;;;;;;2.50;2.30;;;21.40;99.90;;;;;;4916742;29;20466;-70
2021/08/01 11:26:37;;;;;;;4.90;2.13;;;21.30;99.90;;;;;;4920767;29;20453;-70
2021/08/01 11:29:07;;;;;;;4.73;2.77;;;21.30;99.90;;;;;;4920236;29;20949;-70
2021/08/01 11:31:36;;;;;;;2.80;2.30;;;21.30;99.90;;;;;;4920231;29;20469;-70
2021/08/01 11:34:26;;;;;;;3.50;2.60;;;21.40;99.90;;;;;;4920337;29;20468;-70
2021/08/01 11:37:17;;;;;;;4.43;2.53;;;21.50;99.90;;;;;;4920222;29;20450;-70
2021/08/01 11:39:53;;;;;;;2.40;1.90;;;21.70;99.90;;;;;;4920307;29;20572;-70
2021/08/01 11:42:24;;;;;;;2.40;2.20;;;21.80;99.90;;;;;;4919938;29;20446;-70
2021/08/01 11:44:58;;;;;;;6.80;2.33;;;21.90;99.90;;;;;;4919991;29;20465;-70
2021/08/01 11:47:26;;;;;;;2.97;2.50;;;21.90;99.90;;;;;;4920076;29;20476;-70
2021/08/01 11:49:53;;;;;;;2.43;2.20;;;22.00;99.90;;;;;;4920225;29;20469;-70
2021/08/01 11:52:41;;;;;;;2.83;2.10;;;22.00;99.90;;;;;;4918841;29;20469;-71
2021/08/01 11:55:12;;;;;;;2.20;2.00;;;21.90;99.90;;;;;;4919678;29;20549;-70
2021/08/01 11:57:42;;;;;;;1.97;1.87;;;22.10;99.90;;;;;;4920044;29;20449;-70
2021/08/01 12:00:09;;;;;;;2.33;2.10;;;22.30;99.90;;;;;;4919996;29;20485;-70
2021/08/01 12:02:38;;;;;;;5.87;2.13;;;22.50;99.90;;;;;;4919615;29;20529;-70
2021/08/01 12:05:06;;;;;;;2.27;2.07;;;22.70;99.90;;;;;;4920452;29;20891;-69
2021/08/01 12:07:41;;;;;;;2.57;2.37;;;23.00;99.90;;;;;;4919754;29;20787;-70
2021/08/01 12:10:16;;;;;;;2.20;2.00;;;23.10;99.90;;;;;;4920000;29;20464;-71
2021/08/01 12:12:43;;;;;;;6.50;2.17;;;23.30;99.90;;;;;;4919858;29;20445;-70
2021/08/01 12:15:10;;;;;;;2.13;1.93;;;23.60;99.90;;;;;;4919437;29;20862;-70
2021/08/01 12:17:40;;;;;;;3.10;2.03;;;23.60;99.90;;;;;;4919953;29;20461;-69
2021/08/01 12:20:09;;;;;;;2.30;2.10;;;23.80;99.90;;;;;;4920185;29;20806;-70
2021/08/01 12:22:36;;;;;;;2.33;2.13;;;24.00;99.90;;;;;;4919427;29;20465;-70
2021/08/01 12:25:05;;;;;;;3.37;2.40;;;24.10;99.90;;;;;;4919296;29;20473;-70
2021/08/01 12:27:35;;;;;;;1.93;1.80;;;24.20;99.90;;;;;;4919544;29;20571;-70
2021/08/01 12:30:08;;;;;;;1.97;1.87;;;24.40;99.90;;;;;;4919347;29;20465;-70
2021/08/01 12:32:37;;;;;;;3.10;2.10;;;25.10;99.90;;;;;;4919430;29;20446;-70
2021/08/01 12:35:06;;;;;;;3.63;2.07;;;25.80;99.90;;;;;;4919406;29;20492;-72
2021/08/01 12:37:45;;;;;;;2.63;1.83;;;26.50;99.90;;;;;;4918814;29;20457;-70
2021/08/01 12:40:14;;;;;;;2.20;1.83;;;26.90;99.90;;;;;;4919251;29;20500;-70
2021/08/01 12:42:54;;;;;;;2.43;2.23;;;26.90;99.90;;;;;;4919717;29;20461;-70
2021/08/01 12:45:21;;;;;;;2.20;1.97;;;26.70;99.90;;;;;;4919507;29;20469;-70
2021/08/01 12:47:48;;;;;;;2.10;1.70;;;26.40;99.90;;;;;;4919247;29;20830;-70
2021/08/01 12:50:16;;;;;;;2.13;1.97;;;26.00;99.90;;;;;;4919441;29;20462;-71
2021/08/01 12:52:43;;;;;;;3.00;2.70;;;25.80;99.90;;;;;;4919108;29;20497;-70
2021/08/01 12:55:11;;;;;;;2.83;2.47;;;25.50;99.90;;;;;;4919207;29;20465;-70
2021/08/01 12:58:01;;;;;;;3.47;2.23;;;25.40;99.90;;;;;;4919237;29;20469;-70
2021/08/01 13:00:30;;;;;;;2.10;1.90;;;25.40;99.90;;;;;;4918644;29;20998;-70